Time;durP1;ratioP1;P1;durP2;ratioP2;P2;SDS_P1;SDS_P2;PMS_P1;PMS_P2;Temp;Humidity;BMP_temperature;BMP_pressure;BME280_temperature;BME280_humidity;BME280_pressure;Samples;Min_cycle;Max_cycle;Signal;HPM_P1;HPM_P2
2024/04/26 00:01:26;;;;;;;10.77;5.95;;;;;;;;;;5154060;27;20000;-82
2024/04/26 00:03:52;;;;;;;7.47;5.20;;;;;;;;;;5149328;27;20015;-82
2024/04/26 00:06:17;;;;;;;8.57;5.50;;;;;;;;;;5181890;27;20449;-82
2024/04/26 00:08:43;;;;;;;7.68;5.70;;;;;;;;;;5144929;27;20046;-83
2024/04/26 00:11:08;;;;;;;8.93;5.43;;;;;;;;;;5173884;27;20003;-83
2024/04/26 00:13:34;;;;;;;8.15;5.70;;;;;;;;;;5180454;27;20016;-82
2024/04/26 00:16:00;;;;;;;11.65;5.72;;;;;;;;;;5144723;27;20020;-82
2024/04/26 00:18:26;;;;;;;8.60;5.72;;;;;;;;;;5147944;27;20016;-82
2024/04/26 00:20:51;;;;;;;8.05;6.05;;;;;;;;;;5191967;27;20020;-83
2024/04/26 00:23:16;;;;;;;9.77;6.10;;;;;;;;;;5159900;27;20016;-82
2024/04/26 00:25:42;;;;;;;9.27;5.80;;;;;;;;;;5156461;27;20009;-83
2024/04/26 00:28:08;;;;;;;8.38;5.97;;;;;;;;;;5184462;27;20023;-82
2024/04/26 00:30:34;;;;;;;9.38;6.15;;;;;;;;;;5151236;27;20004;-79
2024/04/26 00:32:59;;;;;;;8.32;6.18;;;;;;;;;;5191767;27;20449;-78
2024/04/26 00:35:25;;;;;;;8.40;5.63;;;;;;;;;;5162855;27;20008;-80
2024/04/26 00:37:50;;;;;;;9.57;6.40;;;;;;;;;;5154797;27;20015;-79
2024/04/26 00:40:16;;;;;;;8.95;5.97;;;;;;;;;;5129837;27;20005;-79
2024/04/26 00:42:41;;;;;;;9.05;6.03;;;;;;;;;;5164940;27;20000;-79
2024/04/26 00:45:07;;;;;;;10.23;6.10;;;;;;;;;;5158008;27;20502;-79
2024/04/26 00:47:32;;;;;;;8.95;6.40;;;;;;;;;;5188339;27;20011;-79
2024/04/26 00:49:59;;;;;;;10.07;6.68;;;;;;;;;;5188876;27;20004;-79
2024/04/26 00:52:25;;;;;;;9.80;6.35;;;;;;;;;;5148414;27;20019;-78
2024/04/26 00:54:50;;;;;;;10.02;6.55;;;;;;;;;;5147242;27;20020;-79
2024/04/26 00:57:16;;;;;;;8.98;6.32;;;;;;;;;;5149747;27;20004;-79
2024/04/26 00:59:42;;;;;;;10.95;6.80;;;;;;;;;;5153323;27;20449;-79
2024/04/26 01:02:08;;;;;;;9.25;6.85;;;;;;;;;;5192327;22;20014;-79
2024/04/26 01:04:34;;;;;;;10.27;6.85;;;;;;;;;;5208520;27;20015;-79
2024/04/26 01:06:59;;;;;;;10.73;6.78;;;;;;;;;;5197554;27;20336;-79
2024/04/26 01:09:25;;;;;;;9.57;6.65;;;;;;;;;;5207164;27;20356;-79
2024/04/26 01:11:51;;;;;;;11.93;7.05;;;;;;;;;;5211969;27;20004;-79
2024/04/26 01:14:17;;;;;;;10.60;6.70;;;;;;;;;;5211556;27;20012;-79
2024/04/26 01:16:43;;;;;;;9.50;6.32;;;;;;;;;;5187893;27;20339;-79
2024/04/26 01:19:11;;;;;;;9.38;6.57;;;;;;;;;;5209836;27;20024;-79
2024/04/26 01:21:37;;;;;;;10.23;6.55;;;;;;;;;;5203272;27;20579;-78
2024/04/26 01:24:04;;;;;;;9.90;6.82;;;;;;;;;;5201470;27;20018;-79
2024/04/26 01:26:30;;;;;;;9.85;6.80;;;;;;;;;;5211317;27;20000;-79
2024/04/26 01:28:55;;;;;;;9.75;6.75;;;;;;;;;;5197851;27;20026;-79
2024/04/26 01:31:20;;;;;;;11.80;7.00;;;;;;;;;;5209906;27;20015;-79
2024/04/26 01:33:46;;;;;;;11.63;7.00;;;;;;;;;;5197458;27;20008;-79
2024/04/26 01:36:11;;;;;;;11.40;7.45;;;;;;;;;;5212800;27;19999;-79
2024/04/26 01:38:37;;;;;;;11.45;7.60;;;;;;;;;;5207082;27;20014;-79
2024/04/26 01:41:02;;;;;;;9.35;6.60;;;;;;;;;;5201256;27;20090;-79
2024/04/26 01:43:27;;;;;;;9.02;6.43;;;;;;;;;;5211071;27;20050;-78
2024/04/26 01:45:53;;;;;;;10.82;7.32;;;;;;;;;;5212291;27;20349;-79
2024/04/26 01:48:19;;;;;;;9.13;6.50;;;;;;;;;;5209729;27;19999;-79
2024/04/26 01:50:45;;;;;;;10.40;6.50;;;;;;;;;;5196323;27;20011;-79
2024/04/26 01:53:10;;;;;;;8.85;6.10;;;;;;;;;;5211182;27;20015;-79
2024/04/26 01:55:35;;;;;;;9.18;6.35;;;;;;;;;;5204010;27;20409;-79
2024/04/26 01:58:01;;;;;;;10.02;6.90;;;;;;;;;;5200652;27;20035;-79
2024/04/26 02:00:26;;;;;;;12.10;7.00;;;;;;;;;;5209339;27;20003;-79
2024/04/26 02:02:55;;;;;;;10.27;6.72;;;;;;;;;;5197544;27;20018;-79
2024/04/26 02:05:24;;;;;;;9.55;6.68;;;;;;;;;;5210585;27;20011;-79
2024/04/26 02:07:49;;;;;;;9.57;6.53;;;;;;;;;;5209653;27;20491;-79
2024/04/26 02:10:17;;;;;;;10.15;6.63;;;;;;;;;;5203234;27;20060;-79
2024/04/26 02:12:42;;;;;;;9.88;6.55;;;;;;;;;;5188746;27;20076;-79
2024/04/26 02:15:07;;;;;;;9.02;5.82;;;;;;;;;;5211242;27;20015;-79
2024/04/26 02:17:34;;;;;;;10.30;6.25;;;;;;;;;;5208259;27;20090;-78
2024/04/26 02:20:00;;;;;;;9.00;6.07;;;;;;;;;;5208890;27;20401;-79
2024/04/26 02:22:25;;;;;;;10.27;6.03;;;;;;;;;;5227005;27;20015;-79
2024/04/26 02:24:51;;;;;;;9.65;6.32;;;;;;;;;;5197338;27;20032;-79
2024/04/26 02:27:16;;;;;;;10.60;6.18;;;;;;;;;;5206247;27;20019;-79
2024/04/26 02:29:41;;;;;;;10.73;6.55;;;;;;;;;;5193854;27;20016;-79
2024/04/26 02:32:07;;;;;;;8.52;5.88;;;;;;;;;;5207354;27;20488;-80
2024/04/26 02:34:32;;;;;;;15.15;6.88;;;;;;;;;;5204247;27;20008;-79
2024/04/26 02:36:58;;;;;;;11.38;6.82;;;;;;;;;;5201229;27;20003;-79
2024/04/26 02:39:23;;;;;;;9.73;6.20;;;;;;;;;;5210752;27;20011;-78
2024/04/26 02:41:48;;;;;;;11.35;6.63;;;;;;;;;;5209145;27;20018;-79
2024/04/26 02:44:14;;;;;;;9.10;6.00;;;;;;;;;;5188719;27;20007;-79
2024/04/26 02:46:40;;;;;;;9.70;6.20;;;;;;;;;;5211713;27;20435;-79
2024/04/26 02:49:08;;;;;;;12.45;6.95;;;;;;;;;;5200218;27;20408;-79
2024/04/26 02:51:34;;;;;;;10.40;6.38;;;;;;;;;;5201868;27;20011;-79
2024/04/26 02:53:59;;;;;;;9.98;6.40;;;;;;;;;;5191990;27;20008;-79
2024/04/26 02:56:25;;;;;;;9.90;5.93;;;;;;;;;;5210330;27;20014;-79
2024/04/26 02:58:50;;;;;;;11.27;6.28;;;;;;;;;;5196851;27;20026;-79
2024/04/26 03:01:16;;;;;;;8.75;5.60;;;;;;;;;;5207787;27;20014;-79
2024/04/26 03:03:44;;;;;;;9.60;6.05;;;;;;;;;;5199230;27;20004;-78
2024/04/26 03:06:11;;;;;;;9.13;6.45;;;;;;;;;;5209320;27;20083;-79
2024/04/26 03:08:37;;;;;;;8.52;5.47;;;;;;;;;;5199854;27;20015;-79
2024/04/26 03:11:04;;;;;;;10.25;6.43;;;;;;;;;;5191914;27;20455;-80
2024/04/26 03:13:29;;;;;;;9.32;6.07;;;;;;;;;;5199712;27;20031;-79
2024/04/26 03:15:54;;;;;;;9.90;6.20;;;;;;;;;;5208612;27;20004;-78
2024/04/26 03:18:20;;;;;;;9.55;6.15;;;;;;;;;;5198469;27;20432;-79
2024/04/26 03:20:45;;;;;;;11.27;6.07;;;;;;;;;;5186879;27;20026;-78
2024/04/26 03:23:12;;;;;;;10.40;6.80;;;;;;;;;;5208083;27;20395;-79
2024/04/26 03:25:37;;;;;;;8.73;5.97;;;;;;;;;;5208247;27;20024;-79
2024/04/26 03:28:03;;;;;;;9.20;6.25;;;;;;;;;;5199646;27;20007;-80
2024/04/26 03:30:28;;;;;;;10.32;6.47;;;;;;;;;;5205769;27;20008;-79
2024/04/26 03:32:53;;;;;;;9.05;6.40;;;;;;;;;;5186704;27;20539;-80
2024/04/26 03:35:19;;;;;;;8.82;5.65;;;;;;;;;;5212372;27;20058;-79
2024/04/26 03:37:44;;;;;;;8.85;6.15;;;;;;;;;;5179104;27;20014;-79
2024/04/26 03:40:13;;;;;;;11.48;6.28;;;;;;;;;;5194657;27;20015;-79
2024/04/26 03:42:41;;;;;;;9.07;5.70;;;;;;;;;;5203466;27;20464;-79
2024/04/26 03:45:07;;;;;;;8.52;5.63;;;;;;;;;;5208838;27;20476;-79
2024/04/26 03:47:32;;;;;;;10.05;5.68;;;;;;;;;;5192492;27;20063;-79
2024/04/26 03:54:15;;;;;;;8.25;5.28;;;;;;;;;;5195548;27;20007;-79
2024/04/26 03:56:45;;;;;;;8.65;5.00;;;;;;;;;;5094671;27;20012;-79
2024/04/26 03:59:07;;;;;;;8.75;5.20;;;;;;;;;;5206162;27;20004;-79
2024/04/26 04:01:33;;;;;;;7.20;4.90;;;;;;;;;;5205785;27;20010;-78
2024/04/26 04:03:59;;;;;;;6.78;5.10;;;;;;;;;;5199616;27;20008;-78
2024/04/26 04:06:24;;;;;;;7.32;4.70;;;;;;;;;;5207551;27;20018;-79
2024/04/26 04:08:50;;;;;;;7.00;4.38;;;;;;;;;;5208944;27;20004;-79
2024/04/26 04:11:15;;;;;;;5.72;3.90;;;;;;;;;;5201897;27;20007;-78
2024/04/26 04:13:41;;;;;;;7.05;4.15;;;;;;;;;;5212185;27;20009;-79
2024/04/26 04:16:06;;;;;;;6.97;4.72;;;;;;;;;;5207511;27;20010;-80
2024/04/26 04:18:31;;;;;;;7.70;4.95;;;;;;;;;;5207515;27;20018;-78
2024/04/26 04:20:57;;;;;;;6.53;4.45;;;;;;;;;;5197886;27;20012;-78
2024/04/26 04:23:22;;;;;;;6.43;4.25;;;;;;;;;;5189926;27;20010;-79
2024/04/26 04:25:49;;;;;;;6.75;4.53;;;;;;;;;;5196341;27;20004;-78
2024/04/26 04:28:14;;;;;;;6.93;4.50;;;;;;;;;;5205832;27;20047;-78
2024/04/26 04:30:40;;;;;;;7.00;4.30;;;;;;;;;;5194695;27;20004;-79
2024/04/26 04:33:06;;;;;;;6.63;4.22;;;;;;;;;;5206075;27;20004;-79
2024/04/26 04:35:31;;;;;;;7.97;4.70;;;;;;;;;;5207616;27;20059;-78
2024/04/26 04:37:57;;;;;;;6.90;4.47;;;;;;;;;;5183255;27;20356;-79
2024/04/26 04:40:22;;;;;;;7.13;4.57;;;;;;;;;;5209360;27;20003;-79
2024/04/26 04:42:48;;;;;;;7.88;4.78;;;;;;;;;;5186110;27;20051;-78
2024/04/26 04:45:14;;;;;;;6.38;4.50;;;;;;;;;;5209079;27;20008;-78
2024/04/26 04:47:40;;;;;;;8.82;4.50;;;;;;;;;;5196870;27;20032;-78
2024/04/26 04:50:06;;;;;;;8.20;4.63;;;;;;;;;;5211052;27;20035;-79
2024/04/26 04:52:31;;;;;;;6.82;4.22;;;;;;;;;;5207360;27;20016;-79
2024/04/26 04:54:57;;;;;;;5.93;4.22;;;;;;;;;;5196187;27;20282;-79
2024/04/26 04:57:22;;;;;;;6.88;3.70;;;;;;;;;;5205977;27;20036;-78
2024/04/26 04:59:47;;;;;;;6.72;4.00;;;;;;;;;;5197481;27;20008;-79
2024/04/26 05:02:14;;;;;;;7.65;3.97;;;;;;;;;;5204822;27;20008;-79
2024/04/26 05:04:39;;;;;;;6.60;3.95;;;;;;;;;;5200973;27;20004;-79
2024/04/26 05:07:06;;;;;;;7.47;4.03;;;;;;;;;;5210935;27;19999;-78
2024/04/26 05:09:31;;;;;;;6.95;4.03;;;;;;;;;;5209773;27;20328;-79
2024/04/26 05:11:57;;;;;;;7.13;4.00;;;;;;;;;;5196877;27;22087;-78
2024/04/26 05:14:23;;;;;;;6.50;3.58;;;;;;;;;;5209561;27;20003;-78
2024/04/26 05:16:48;;;;;;;6.65;3.72;;;;;;;;;;5196382;27;20082;-79
2024/04/26 05:19:14;;;;;;;7.32;3.78;;;;;;;;;;5209229;27;20019;-78
2024/04/26 05:21:39;;;;;;;5.65;3.50;;;;;;;;;;5210636;27;20022;-79
2024/04/26 05:24:05;;;;;;;6.47;3.75;;;;;;;;;;5211580;27;20008;-78
2024/04/26 05:26:30;;;;;;;5.60;3.58;;;;;;;;;;5208122;27;20011;-78
2024/04/26 05:28:56;;;;;;;5.63;3.53;;;;;;;;;;5206345;27;20008;-78
2024/04/26 05:31:21;;;;;;;7.07;3.83;;;;;;;;;;5211947;27;20010;-78
2024/04/26 05:33:47;;;;;;;4.93;3.33;;;;;;;;;;5196174;27;20090;-79
2024/04/26 05:36:12;;;;;;;6.35;3.60;;;;;;;;;;5214487;27;20015;-78
2024/04/26 05:38:37;;;;;;;6.07;3.60;;;;;;;;;;5237585;27;20052;-78
2024/04/26 05:41:03;;;;;;;7.28;4.10;;;;;;;;;;5201631;27;20035;-78
2024/04/26 05:43:28;;;;;;;6.50;3.72;;;;;;;;;;5208045;27;20008;-78
2024/04/26 05:45:56;;;;;;;6.53;3.90;;;;;;;;;;5211215;27;20471;-78
2024/04/26 05:48:22;;;;;;;7.13;3.97;;;;;;;;;;5205311;27;20467;-78
2024/04/26 05:50:47;;;;;;;7.55;4.57;;;;;;;;;;5197344;27;20104;-77
2024/04/26 05:53:13;;;;;;;6.80;3.95;;;;;;;;;;5207596;27;20020;-78
2024/04/26 05:55:38;;;;;;;6.15;3.95;;;;;;;;;;5211158;27;20008;-78
2024/04/26 05:58:05;;;;;;;6.03;3.65;;;;;;;;;;5200516;27;20048;-78
2024/04/26 06:00:32;;;;;;;6.82;4.18;;;;;;;;;;5208816;27;20014;-78
2024/04/26 06:02:57;;;;;;;6.28;4.03;;;;;;;;;;5210015;27;20038;-78
2024/04/26 06:05:26;;;;;;;6.95;4.53;;;;;;;;;;5204290;27;19999;-79
2024/04/26 06:07:52;;;;;;;7.15;4.38;;;;;;;;;;5224539;27;20004;-78
2024/04/26 06:10:17;;;;;;;7.10;4.30;;;;;;;;;;5210878;27;20020;-78
2024/04/26 06:12:43;;;;;;;7.00;4.10;;;;;;;;;;5209485;27;20041;-78
2024/04/26 06:15:09;;;;;;;7.20;4.35;;;;;;;;;;5201336;27;20008;-79
2024/04/26 06:17:34;;;;;;;6.53;4.00;;;;;;;;;;5203506;27;20487;-78
2024/04/26 06:20:00;;;;;;;6.70;4.07;;;;;;;;;;5195640;27;20043;-79
2024/04/26 06:22:25;;;;;;;7.22;4.30;;;;;;;;;;5208758;27;20460;-78
2024/04/26 06:24:51;;;;;;;6.05;3.95;;;;;;;;;;5205925;27;20011;-78
2024/04/26 06:27:16;;;;;;;6.78;3.95;;;;;;;;;;5202292;27;20536;-78
2024/04/26 06:29:41;;;;;;;8.95;4.75;;;;;;;;;;5194218;27;20511;-78
2024/04/26 06:32:07;;;;;;;6.00;4.35;;;;;;;;;;5208229;27;20735;-78
2024/04/26 06:34:33;;;;;;;8.68;4.30;;;;;;;;;;5201493;27;19996;-79
2024/04/26 06:37:00;;;;;;;8.90;4.53;;;;;;;;;;5204227;27;20475;-78
2024/04/26 06:39:26;;;;;;;8.00;4.63;;;;;;;;;;5204686;27;20472;-78
2024/04/26 06:41:51;;;;;;;5.95;3.85;;;;;;;;;;5197010;27;20004;-78
2024/04/26 06:44:17;;;;;;;6.95;4.47;;;;;;;;;;5204377;27;20014;-78
2024/04/26 06:46:42;;;;;;;7.10;3.97;;;;;;;;;;5196320;27;20083;-78
2024/04/26 06:49:07;;;;;;;6.53;4.32;;;;;;;;;;5196758;27;20014;-78
2024/04/26 06:51:33;;;;;;;6.20;4.05;;;;;;;;;;5206343;27;20011;-78
2024/04/26 06:53:58;;;;;;;7.18;4.55;;;;;;;;;;5199652;27;20401;-78
2024/04/26 06:56:24;;;;;;;6.43;4.07;;;;;;;;;;5201257;27;20000;-78
2024/04/26 06:58:49;;;;;;;7.30;4.40;;;;;;;;;;5208523;27;20328;-78
2024/04/26 07:01:14;;;;;;;7.13;4.32;;;;;;;;;;5201057;27;20065;-78
2024/04/26 07:03:40;;;;;;;6.78;4.32;;;;;;;;;;5177600;27;20043;-78
2024/04/26 07:06:10;;;;;;;7.28;4.07;;;;;;;;;;5208171;27;20022;-78
2024/04/26 07:08:35;;;;;;;7.18;3.95;;;;;;;;;;5200180;27;20000;-78
2024/04/26 07:11:01;;;;;;;7.10;4.65;;;;;;;;;;5210083;27;20044;-78
2024/04/26 07:13:27;;;;;;;8.38;4.35;;;;;;;;;;5204703;27;20075;-78
2024/04/26 07:15:52;;;;;;;7.18;4.25;;;;;;;;;;5188410;27;20014;-78
2024/04/26 07:18:17;;;;;;;7.25;4.20;;;;;;;;;;5209112;27;20440;-78
2024/04/26 07:20:43;;;;;;;6.75;4.15;;;;;;;;;;5195435;27;20008;-78
2024/04/26 07:23:10;;;;;;;8.73;5.22;;;;;;;;;;5203371;27;20014;-79
2024/04/26 07:25:35;;;;;;;7.60;4.70;;;;;;;;;;5210321;27;20008;-79
2024/04/26 07:28:01;;;;;;;6.97;4.75;;;;;;;;;;5183703;27;20008;-78
2024/04/26 07:30:26;;;;;;;6.97;4.45;;;;;;;;;;5208701;27;20007;-78
2024/04/26 07:32:51;;;;;;;8.30;4.32;;;;;;;;;;5208160;27;20003;-83
2024/04/26 07:35:17;;;;;;;7.43;4.13;;;;;;;;;;5200109;27;20015;-83
2024/04/26 07:37:42;;;;;;;5.97;3.58;;;;;;;;;;5206047;27;20000;-82
2024/04/26 07:40:08;;;;;;;6.97;3.28;;;;;;;;;;5200726;27;20106;-83
2024/04/26 07:42:34;;;;;;;7.00;3.40;;;;;;;;;;5201787;27;20000;-82
2024/04/26 07:44:59;;;;;;;5.10;2.90;;;;;;;;;;5195411;27;20011;-83
2024/04/26 07:47:24;;;;;;;5.22;2.60;;;;;;;;;;5203443;27;20004;-82
2024/04/26 07:49:50;;;;;;;6.28;3.22;;;;;;;;;;5197228;27;20023;-82
2024/04/26 07:52:16;;;;;;;5.95;3.17;;;;;;;;;;5207974;27;20019;-82
2024/04/26 07:54:42;;;;;;;5.82;3.30;;;;;;;;;;5209667;27;20104;-82
2024/04/26 07:57:08;;;;;;;5.45;3.08;;;;;;;;;;5197482;27;20079;-82
2024/04/26 07:59:34;;;;;;;7.30;3.05;;;;;;;;;;5199855;27;20019;-83
2024/04/26 08:02:02;;;;;;;5.72;2.83;;;;;;;;;;5197082;27;20005;-82
2024/04/26 08:04:27;;;;;;;6.70;3.25;;;;;;;;;;5207901;27;20780;-84
2024/04/26 08:06:53;;;;;;;7.53;3.88;;;;;;;;;;5196703;27;20032;-83
2024/04/26 08:09:20;;;;;;;6.15;3.50;;;;;;;;;;5206034;27;20469;-82
2024/04/26 08:11:47;;;;;;;8.45;3.50;;;;;;;;;;5193887;27;20007;-81
2024/04/26 08:14:13;;;;;;;5.93;3.55;;;;;;;;;;5205314;27;20031;-82
2024/04/26 08:16:38;;;;;;;6.95;4.68;;;;;;;;;;5206734;27;20008;-83
2024/04/26 08:19:04;;;;;;;10.48;5.10;;;;;;;;;;5207896;27;20004;-82
2024/04/26 08:21:29;;;;;;;6.85;4.80;;;;;;;;;;5207733;27;19996;-83
2024/04/26 08:23:56;;;;;;;9.65;4.80;;;;;;;;;;5208746;27;20008;-82
2024/04/26 08:26:22;;;;;;;8.05;5.00;;;;;;;;;;5206228;27;20556;-82
2024/04/26 08:28:48;;;;;;;9.48;5.25;;;;;;;;;;5192611;27;20083;-82
2024/04/26 08:31:14;;;;;;;8.30;5.50;;;;;;;;;;5211649;27;20007;-83
2024/04/26 08:33:39;;;;;;;9.88;5.80;;;;;;;;;;5207966;27;20007;-82
2024/04/26 08:36:05;;;;;;;8.25;6.07;;;;;;;;;;5210802;27;20011;-83
2024/04/26 08:38:30;;;;;;;8.68;5.43;;;;;;;;;;5212456;27;20325;-82
2024/04/26 08:40:56;;;;;;;8.02;5.72;;;;;;;;;;5211296;27;20391;-82
2024/04/26 08:43:22;;;;;;;8.13;5.57;;;;;;;;;;5205764;27;20007;-78
2024/04/26 08:45:52;;;;;;;8.48;5.10;;;;;;;;;;5211121;27;20073;-78
2024/04/26 08:48:20;;;;;;;6.75;4.88;;;;;;;;;;5212768;27;20348;-78
2024/04/26 08:50:47;;;;;;;9.48;5.32;;;;;;;;;;5198250;27;20339;-78
2024/04/26 08:53:15;;;;;;;7.82;5.25;;;;;;;;;;5207371;27;20022;-78
2024/04/26 08:55:42;;;;;;;8.43;5.38;;;;;;;;;;5180507;27;20444;-80
2024/04/26 08:58:10;;;;;;;8.25;4.80;;;;;;;;;;5209676;27;20000;-78
2024/04/26 09:00:40;;;;;;;6.03;4.32;;;;;;;;;;5207420;27;20555;-78
2024/04/26 09:03:06;;;;;;;7.72;4.55;;;;;;;;;;5200734;27;20078;-78
2024/04/26 09:05:32;;;;;;;7.35;4.10;;;;;;;;;;5211884;27;20012;-78
2024/04/26 09:07:59;;;;;;;6.45;3.55;;;;;;;;;;5201230;27;20471;-79
2024/04/26 09:10:26;;;;;;;6.72;3.42;;;;;;;;;;5211497;27;20008;-78
2024/04/26 09:12:51;;;;;;;6.63;3.20;;;;;;;;;;5208624;27;19999;-79
2024/04/26 09:15:18;;;;;;;5.28;2.50;;;;;;;;;;5212399;27;20499;-80
2024/04/26 09:17:44;;;;;;;5.28;2.83;;;;;;;;;;5211976;27;20022;-78
2024/04/26 09:20:10;;;;;;;7.22;2.50;;;;;;;;;;5177069;27;20040;-80
2024/04/26 09:22:40;;;;;;;7.57;2.70;;;;;;;;;;5209369;27;20036;-77
2024/04/26 09:25:06;;;;;;;4.75;2.80;;;;;;;;;;5209975;27;20028;-78
2024/04/26 09:27:32;;;;;;;6.03;2.65;;;;;;;;;;5205718;27;20463;-76
2024/04/26 09:29:57;;;;;;;4.00;2.00;;;;;;;;;;5200249;27;20016;-76
2024/04/26 09:32:23;;;;;;;3.78;1.63;;;;;;;;;;5235771;27;20022;-79
2024/04/26 09:34:53;;;;;;;3.58;1.30;;;;;;;;;;5197220;27;20019;-76
2024/04/26 09:37:22;;;;;;;3.60;1.40;;;;;;;;;;5207366;27;20015;-76
2024/04/26 09:39:48;;;;;;;3.47;1.45;;;;;;;;;;5201778;27;20008;-76
2024/04/26 09:42:20;;;;;;;3.75;1.25;;;;;;;;;;5190835;27;20019;-76
2024/04/26 09:44:53;;;;;;;3.03;1.10;;;;;;;;;;5200899;27;20011;-76
2024/04/26 09:47:25;;;;;;;3.75;1.30;;;;;;;;;;5210763;27;20014;-76
2024/04/26 09:49:52;;;;;;;5.57;1.60;;;;;;;;;;5195679;27;20007;-79
2024/04/26 09:52:18;;;;;;;4.82;1.40;;;;;;;;;;5208717;27;20449;-81
2024/04/26 09:54:47;;;;;;;2.67;1.15;;;;;;;;;;5193283;27;20005;-79
2024/04/26 09:57:14;;;;;;;3.67;1.30;;;;;;;;;;5210785;27;20499;-81
2024/04/26 09:59:41;;;;;;;2.78;1.23;;;;;;;;;;5209459;27;20427;-79
2024/04/26 10:02:13;;;;;;;2.40;1.20;;;;;;;;;;5210641;27;20035;-79
2024/04/26 10:04:39;;;;;;;5.45;1.27;;;;;;;;;;5207370;27;20051;-81
2024/04/26 10:07:05;;;;;;;4.07;1.10;;;;;;;;;;5210151;27;20007;-81
2024/04/26 10:09:31;;;;;;;4.05;1.10;;;;;;;;;;5208012;27;20079;-79
2024/04/26 10:11:56;;;;;;;3.25;1.13;;;;;;;;;;5209884;27;20015;-82
2024/04/26 10:14:32;;;;;;;4.55;1.20;;;;;;;;;;5212127;27;20022;-81
2024/04/26 10:17:11;;;;;;;5.28;1.25;;;;;;;;;;5200560;27;20019;-79
2024/04/26 10:19:40;;;;;;;2.88;1.02;;;;;;;;;;5208697;27;20012;-79
2024/04/26 10:22:09;;;;;;;1.92;1.00;;;;;;;;;;5210136;27;20004;-79
2024/04/26 10:24:43;;;;;;;2.72;1.10;;;;;;;;;;5207270;27;20353;-79
2024/04/26 10:27:10;;;;;;;1.80;1.00;;;;;;;;;;5194863;27;20000;-79
2024/04/26 10:29:36;;;;;;;2.00;1.10;;;;;;;;;;5210555;27;20011;-79
2024/04/26 10:32:06;;;;;;;1.98;0.90;;;;;;;;;;5199830;27;20019;-79
2024/04/26 10:34:35;;;;;;;2.30;1.00;;;;;;;;;;5203506;27;20003;-79
2024/04/26 10:37:02;;;;;;;2.67;1.10;;;;;;;;;;5196269;27;20068;-79
2024/04/26 10:39:31;;;;;;;2.72;1.40;;;;;;;;;;5207846;27;20335;-81
2024/04/26 10:41:57;;;;;;;4.22;1.50;;;;;;;;;;5197025;27;19999;-79
2024/04/26 10:44:26;;;;;;;2.95;1.20;;;;;;;;;;5206519;27;20424;-81
2024/04/26 10:46:58;;;;;;;1.50;1.00;;;;;;;;;;5196977;27;20016;-81
2024/04/26 10:49:24;;;;;;;2.63;1.10;;;;;;;;;;5210145;27;20033;-79
2024/04/26 10:51:50;;;;;;;2.03;0.88;;;;;;;;;;5195974;27;20003;-81
2024/04/26 10:54:19;;;;;;;2.67;1.20;;;;;;;;;;5207854;27;20011;-80
2024/04/26 10:56:47;;;;;;;1.98;1.00;;;;;;;;;;5206295;27;20028;-81
2024/04/26 10:59:21;;;;;;;1.90;1.00;;;;;;;;;;5210726;27;20328;-80
2024/04/26 11:01:56;;;;;;;1.23;0.90;;;;;;;;;;5208836;27;20015;-78
2024/04/26 11:04:22;;;;;;;2.65;1.10;;;;;;;;;;5208424;27;20011;-78
2024/04/26 11:06:49;;;;;;;4.55;1.50;;;;;;;;;;5213195;27;20018;-78
2024/04/26 11:09:17;;;;;;;2.67;1.40;;;;;;;;;;5217159;27;20000;-78
2024/04/26 11:11:56;;;;;;;2.85;1.35;;;;;;;;;;5201303;27;20384;-78
2024/04/26 11:14:25;;;;;;;2.90;1.50;;;;;;;;;;5202276;27;20478;-78
2024/04/26 11:16:56;;;;;;;3.20;1.30;;;;;;;;;;5197747;27;19999;-78
2024/04/26 11:19:28;;;;;;;6.07;1.33;;;;;;;;;;5207968;27;20003;-78
2024/04/26 11:21:54;;;;;;;1.83;1.33;;;;;;;;;;5201895;27;20014;-78
2024/04/26 11:24:20;;;;;;;3.53;1.63;;;;;;;;;;5215150;27;20007;-78
2024/04/26 11:26:45;;;;;;;1.92;1.10;;;;;;;;;;5199479;27;20019;-78
2024/04/26 11:29:13;;;;;;;2.40;1.10;;;;;;;;;;5208503;27;20012;-78
2024/04/26 11:31:42;;;;;;;2.92;1.10;;;;;;;;;;5211743;27;20007;-79
2024/04/26 11:34:08;;;;;;;1.65;1.08;;;;;;;;;;5211681;27;20019;-80
2024/04/26 11:36:33;;;;;;;3.20;1.20;;;;;;;;;;5206654;27;20010;-77
2024/04/26 11:39:01;;;;;;;2.50;1.20;;;;;;;;;;5208377;27;20026;-78
2024/04/26 11:41:27;;;;;;;3.65;1.38;;;;;;;;;;5207392;27;20340;-77
2024/04/26 11:43:53;;;;;;;3.00;1.20;;;;;;;;;;5190443;27;20014;-78
2024/04/26 11:46:18;;;;;;;4.18;1.10;;;;;;;;;;5186135;27;20112;-77
2024/04/26 11:48:44;;;;;;;3.85;1.20;;;;;;;;;;5194283;27;20009;-76
2024/04/26 11:51:12;;;;;;;2.63;1.17;;;;;;;;;;5170748;27;20015;-78
2024/04/26 11:53:37;;;;;;;2.60;1.10;;;;;;;;;;5168137;27;20453;-77
2024/04/26 11:56:05;;;;;;;3.00;1.20;;;;;;;;;;5171190;27;20000;-78
2024/04/26 11:58:32;;;;;;;2.83;1.27;;;;;;;;;;5210895;27;20079;-78
2024/04/26 12:01:00;;;;;;;3.42;1.50;;;;;;;;;;5183187;27;20027;-77
2024/04/26 12:03:26;;;;;;;2.83;1.10;;;;;;;;;;5189029;27;20370;-77
2024/04/26 12:05:51;;;;;;;1.65;1.00;;;;;;;;;;5190745;27;20007;-76
2024/04/26 12:08:17;;;;;;;2.50;1.20;;;;;;;;;;5194133;27;20758;-77
2024/04/26 12:10:42;;;;;;;4.30;1.20;;;;;;;;;;5186294;27;20018;-77
2024/04/26 12:13:07;;;;;;;3.85;1.20;;;;;;;;;;5195046;27;20019;-78
2024/04/26 12:15:35;;;;;;;2.75;1.10;;;;;;;;;;5178640;27;20030;-78
2024/04/26 12:18:02;;;;;;;2.72;1.10;;;;;;;;;;5172008;27;20927;-78
2024/04/26 12:20:27;;;;;;;2.20;1.20;;;;;;;;;;5179860;27;20015;-77
2024/04/26 12:22:52;;;;;;;3.08;1.30;;;;;;;;;;5177886;27;20071;-78
2024/04/26 12:25:18;;;;;;;2.25;1.25;;;;;;;;;;5186477;27;20014;-78
2024/04/26 12:27:43;;;;;;;3.03;1.38;;;;;;;;;;5163987;27;20005;-78
2024/04/26 12:30:09;;;;;;;3.65;1.52;;;;;;;;;;5194175;27;20020;-81
2024/04/26 12:32:34;;;;;;;2.65;1.40;;;;;;;;;;5174918;27;20505;-78
2024/04/26 12:35:01;;;;;;;2.10;1.20;;;;;;;;;;5176400;27;20083;-78
2024/04/26 12:37:27;;;;;;;2.45;1.23;;;;;;;;;;5173053;27;20018;-78
2024/04/26 12:39:53;;;;;;;2.78;1.30;;;;;;;;;;5181371;27;20014;-81
2024/04/26 12:42:19;;;;;;;2.65;1.10;;;;;;;;;;5165843;27;20528;-80
2024/04/26 12:44:45;;;;;;;2.75;1.20;;;;;;;;;;5167446;27;20082;-78
2024/04/26 12:47:16;;;;;;;1.63;1.10;;;;;;;;;;5185227;27;20102;-78
2024/04/26 12:49:42;;;;;;;2.85;1.40;;;;;;;;;;5168729;27;20498;-77
2024/04/26 12:52:07;;;;;;;3.55;1.40;;;;;;;;;;5195951;27;20023;-79
2024/04/26 12:54:36;;;;;;;3.35;1.55;;;;;;;;;;5191451;27;20439;-79
2024/04/26 12:57:01;;;;;;;2.95;1.30;;;;;;;;;;5199153;27;19999;-79
2024/04/26 12:59:27;;;;;;;2.05;1.38;;;;;;;;;;5183396;27;20078;-78
2024/04/26 13:01:53;;;;;;;4.10;1.58;;;;;;;;;;5188736;27;20204;-79
2024/04/26 13:04:19;;;;;;;2.05;1.30;;;;;;;;;;5200295;27;20403;-79
2024/04/26 13:06:44;;;;;;;3.92;1.33;;;;;;;;;;5173416;27;20019;-78
2024/04/26 13:09:10;;;;;;;3.70;1.50;;;;;;;;;;5235546;27;20004;-78
2024/04/26 13:11:36;;;;;;;2.33;1.25;;;;;;;;;;5199950;27;20003;-78
2024/04/26 13:14:01;;;;;;;4.70;1.33;;;;;;;;;;5198349;27;20019;-79
2024/04/26 13:16:27;;;;;;;2.25;1.40;;;;;;;;;;5195446;27;20003;-78
2024/04/26 13:18:52;;;;;;;3.20;1.40;;;;;;;;;;5192946;27;20341;-79
2024/04/26 13:21:18;;;;;;;2.50;1.30;;;;;;;;;;5186541;27;20023;-78
2024/04/26 13:23:45;;;;;;;2.75;1.40;;;;;;;;;;5190303;27;20015;-79
2024/04/26 13:26:10;;;;;;;2.72;1.33;;;;;;;;;;5179105;27;20056;-78
2024/04/26 13:28:36;;;;;;;3.83;1.40;;;;;;;;;;5201701;27;20011;-79
2024/04/26 13:31:02;;;;;;;2.70;1.30;;;;;;;;;;5189632;27;20016;-78
2024/04/26 13:33:27;;;;;;;2.78;1.15;;;;;;;;;;5196552;27;20014;-78
2024/04/26 13:35:53;;;;;;;4.30;1.38;;;;;;;;;;5182949;27;20012;-76
2024/04/26 13:38:18;;;;;;;2.63;1.50;;;;;;;;;;5197969;27;20003;-75
2024/04/26 13:40:43;;;;;;;2.55;1.20;;;;;;;;;;5219743;27;20003;-75
2024/04/26 13:43:09;;;;;;;4.85;1.40;;;;;;;;;;5201759;27;20075;-77
2024/04/26 13:45:35;;;;;;;2.72;1.17;;;;;;;;;;5175595;27;20030;-77
2024/04/26 13:48:00;;;;;;;4.70;1.55;;;;;;;;;;5199735;27;20007;-76
2024/04/26 13:50:25;;;;;;;2.88;1.50;;;;;;;;;;5200926;27;20483;-76
2024/04/26 13:52:51;;;;;;;2.60;1.50;;;;;;;;;;5190108;27;20007;-76
2024/04/26 13:55:16;;;;;;;2.80;1.38;;;;;;;;;;5191228;27;20772;-77
2024/04/26 13:57:41;;;;;;;2.80;1.20;;;;;;;;;;5189175;27;20000;-76
2024/04/26 14:00:07;;;;;;;3.03;1.38;;;;;;;;;;5202359;27;20036;-77
2024/04/26 14:02:33;;;;;;;3.30;1.35;;;;;;;;;;5200338;27;20043;-77
2024/04/26 14:04:59;;;;;;;3.60;1.35;;;;;;;;;;5184025;27;20119;-76
2024/04/26 14:07:28;;;;;;;6.13;1.50;;;;;;;;;;5199019;27;20003;-78
2024/04/26 14:09:54;;;;;;;3.17;1.40;;;;;;;;;;5203795;27;20551;-77
2024/04/26 14:12:19;;;;;;;4.10;1.20;;;;;;;;;;5203797;27;20014;-78
2024/04/26 14:14:45;;;;;;;2.33;1.27;;;;;;;;;;5186982;27;20004;-78
2024/04/26 14:17:10;;;;;;;1.85;1.30;;;;;;;;;;5203503;27;20340;-76
2024/04/26 14:19:36;;;;;;;3.70;1.15;;;;;;;;;;5194074;27;20039;-76
2024/04/26 14:22:02;;;;;;;2.95;1.38;;;;;;;;;;5182517;27;20003;-77
2024/04/26 14:24:28;;;;;;;3.33;1.70;;;;;;;;;;5198203;27;20449;-77
2024/04/26 14:26:55;;;;;;;3.10;1.40;;;;;;;;;;5188011;27;20008;-77
2024/04/26 14:29:21;;;;;;;2.83;1.30;;;;;;;;;;5173901;27;20465;-77
2024/04/26 14:31:46;;;;;;;1.98;1.25;;;;;;;;;;5189358;27;19996;-76
2024/04/26 14:34:12;;;;;;;2.10;1.30;;;;;;;;;;5205628;27;20042;-77
2024/04/26 14:36:37;;;;;;;3.00;1.38;;;;;;;;;;5171185;27;20043;-76
2024/04/26 14:39:03;;;;;;;3.75;1.30;;;;;;;;;;5192725;27;19999;-77